createdAt,value
2019-02-18T00:01:04.511Z,2.29
2019-02-18T00:03:35.474Z,2.27
2019-02-18T00:06:06.321Z,2.32
2019-02-18T00:08:35.814Z,2.24
2019-02-18T00:11:06.165Z,2.29
2019-02-18T00:13:37.320Z,2.26
2019-02-18T00:16:08.245Z,2.20
2019-02-18T00:18:36.968Z,2.22
2019-02-18T00:21:06.535Z,2.41
2019-02-18T00:23:42.749Z,2.42
2019-02-18T00:26:13.128Z,2.27
2019-02-18T00:28:42.812Z,2.22
2019-02-18T00:31:16.423Z,2.11
2019-02-18T00:33:44.854Z,2.11
2019-02-18T00:36:16.170Z,2.09
2019-02-18T00:38:48.133Z,2.04
2019-02-18T00:41:21.367Z,1.93
2019-02-18T00:43:50.204Z,1.77
2019-02-18T00:46:24.021Z,1.72
2019-02-18T00:48:54.260Z,1.83
2019-02-18T00:51:27.663Z,1.87
2019-02-18T00:53:56.165Z,1.93
2019-02-18T00:56:28.396Z,2.02
2019-02-18T00:58:56.977Z,1.97
2019-02-18T01:01:26.277Z,2.15
2019-02-18T01:03:58.332Z,2.19
2019-02-18T01:06:27.076Z,2.17
2019-02-18T01:08:58.176Z,2.09
2019-02-18T01:11:31.769Z,1.95
2019-02-18T01:14:01.967Z,1.89
2019-02-18T01:16:34.514Z,1.82
2019-02-18T01:19:06.526Z,1.74
2019-02-18T01:21:40.097Z,1.64
2019-02-18T01:24:10.420Z,1.51
2019-02-18T01:26:39.115Z,1.46
2019-02-18T01:29:07.839Z,1.48
2019-02-18T01:31:38.245Z,1.42
2019-02-18T01:34:11.552Z,1.18
2019-02-18T01:36:42.573Z,1.14
2019-02-18T01:39:16.277Z,1.07
2019-02-18T01:41:47.771Z,1.18
2019-02-18T01:44:19.556Z,1.29
2019-02-18T01:46:54.006Z,1.26
2019-02-18T01:49:30.249Z,1.22
2019-02-18T01:52:01.356Z,1.13
2019-02-18T01:54:30.428Z,0.99
2019-02-18T01:57:03.901Z,0.95
2019-02-18T01:59:32.891Z,1.06
2019-02-18T02:02:03.594Z,0.94
2019-02-18T02:04:34.194Z,0.98
2019-02-18T02:07:06.264Z,0.93
2019-02-18T02:09:39.551Z,0.93
2019-02-18T02:12:08.281Z,1.11
2019-02-18T02:14:36.821Z,0.97
2019-02-18T02:17:10.435Z,0.87
2019-02-18T02:19:40.651Z,0.76
2019-02-18T02:22:09.603Z,0.73
2019-02-18T02:24:38.857Z,0.68
2019-02-18T02:27:10.639Z,0.67
2019-02-18T02:29:41.002Z,0.69
2019-02-18T02:32:11.399Z,0.64
2019-02-18T02:34:45.487Z,0.66
2019-02-18T02:37:17.374Z,0.58
2019-02-18T02:39:46.306Z,0.52
2019-02-18T02:42:17.944Z,0.60
2019-02-18T02:44:47.173Z,0.61
2019-02-18T02:47:18.631Z,0.52
2019-02-18T02:49:49.958Z,0.38
2019-02-18T02:52:20.492Z,0.27
2019-02-18T02:54:49.577Z,0.25
2019-02-18T02:57:20.039Z,0.22
2019-02-18T02:59:50.787Z,0.12
2019-02-18T03:02:22.887Z,0.13
2019-02-18T03:04:53.707Z,0.04
2019-02-18T03:07:31.197Z,-0.08
2019-02-18T03:10:02.507Z,-0.12
2019-02-18T03:12:32.629Z,-0.15
2019-02-18T03:15:06.049Z,-0.13
2019-02-18T03:17:37.275Z,-0.16
2019-02-18T03:20:09.602Z,-0.21
2019-02-18T03:22:40.045Z,-0.17
2019-02-18T03:25:16.651Z,-0.10
2019-02-18T03:27:45.256Z,-0.05
2019-02-18T03:30:42.792Z,-0.10
2019-02-18T03:33:14.515Z,-0.22
2019-02-18T03:35:43.447Z,-0.22
2019-02-18T03:38:17.156Z,-0.27
2019-02-18T03:40:45.695Z,-0.29
2019-02-18T03:43:19.619Z,-0.33
2019-02-18T03:45:50.366Z,-0.35
2019-02-18T03:48:23.970Z,-0.43
2019-02-18T03:50:53.550Z,-0.46
2019-02-18T03:53:25.579Z,-0.46
2019-02-18T03:55:56.348Z,-0.40
2019-02-18T03:58:29.853Z,-0.33
2019-02-18T04:00:58.130Z,-0.28
2019-02-18T04:03:28.240Z,-0.12
2019-02-18T04:05:57.156Z,-0.15
2019-02-18T04:08:27.618Z,-0.18
2019-02-18T04:10:58.141Z,-0.17
2019-02-18T04:13:27.264Z,-0.16
2019-02-18T04:15:58.346Z,-0.15
2019-02-18T04:18:29.181Z,-0.09
2019-02-18T04:20:59.310Z,-0.04
2019-02-18T04:23:31.351Z,-0.06
2019-02-18T04:26:01.276Z,-0.13
2019-02-18T04:28:32.842Z,-0.24
2019-02-18T04:31:04.218Z,-0.25
2019-02-18T04:33:37.860Z,-0.25
2019-02-18T04:36:11.500Z,-0.23
2019-02-18T04:38:40.430Z,-0.18
2019-02-18T04:41:09.307Z,-0.24
2019-02-18T04:43:37.866Z,-0.30
2019-02-18T04:46:08.407Z,-0.33
2019-02-18T04:48:41.735Z,-0.17
2019-02-18T04:51:11.118Z,-0.16
2019-02-18T04:53:39.878Z,-0.23
2019-02-18T04:56:12.120Z,-0.30
2019-02-18T04:58:44.054Z,-0.35
2019-02-18T05:01:35.983Z,-0.41
2019-02-18T05:04:05.216Z,-0.47
2019-02-18T05:06:35.496Z,-0.56
2019-02-18T05:09:05.959Z,-0.51
2019-02-18T05:11:36.356Z,-0.49
2019-02-18T05:14:05.677Z,-0.35
2019-02-18T05:16:34.408Z,-0.28
2019-02-18T05:19:07.063Z,-0.19
2019-02-18T05:21:39.063Z,-0.32
2019-02-18T05:24:09.881Z,-0.27
2019-02-18T05:26:40.676Z,-0.21
2019-02-18T05:29:11.341Z,-0.23
2019-02-18T05:31:42.005Z,-0.23
2019-02-18T05:34:12.462Z,-0.26
2019-02-18T05:36:42.774Z,-0.24
2019-02-18T05:39:17.884Z,-0.19
2019-02-18T05:41:45.244Z,0.01
2019-02-18T05:44:18.479Z,0.07
2019-02-18T05:46:49.518Z,0.03
2019-02-18T05:49:19.638Z,0.01
2019-02-18T05:51:48.826Z,-0.02
2019-02-18T05:54:22.504Z,-0.05
2019-02-18T05:56:52.926Z,-0.09
2019-02-18T05:59:22.395Z,-0.12
2019-02-18T06:01:52.898Z,-0.11
2019-02-18T06:04:21.657Z,-0.12
2019-02-18T06:06:58.754Z,0.00
2019-02-18T06:09:30.452Z,-0.06
2019-02-18T06:12:01.344Z,-0.05
2019-02-18T06:14:30.982Z,-0.10
2019-02-18T06:17:02.889Z,-0.13
2019-02-18T06:19:33.145Z,-0.16
2019-02-18T06:22:02.898Z,-0.19
2019-02-18T06:24:39.554Z,-0.25
2019-02-18T06:27:09.558Z,-0.28
2019-02-18T06:29:38.848Z,-0.33
2019-02-18T06:32:09.057Z,-0.33
2019-02-18T06:34:39.748Z,-0.29
2019-02-18T06:37:10.483Z,-0.34
2019-02-18T06:39:42.001Z,-0.42
2019-02-18T06:42:11.446Z,-0.40
2019-02-18T06:44:59.589Z,-0.43
2019-02-18T06:47:31.810Z,-0.45
2019-02-18T06:50:00.565Z,-0.49
2019-02-18T06:52:32.890Z,-0.49
2019-02-18T06:55:03.361Z,-0.47
2019-02-18T06:57:54.171Z,-0.46
2019-02-18T07:00:34.576Z,-0.46
2019-02-18T07:03:26.018Z,-0.53
2019-02-18T07:06:15.100Z,-0.50
2019-02-18T07:08:52.343Z,-0.42
2019-02-18T07:11:30.681Z,-0.43
2019-02-18T07:14:03.050Z,-0.33
2019-02-18T07:16:34.802Z,-0.27
2019-02-18T07:19:05.724Z,-0.23
2019-02-18T07:21:36.158Z,-0.14
2019-02-18T07:24:04.751Z,0.00
2019-02-18T07:26:33.631Z,0.09
2019-02-18T07:29:04.451Z,0.23
2019-02-18T07:31:33.419Z,0.34
2019-02-18T07:34:06.671Z,0.45
2019-02-18T07:36:35.216Z,0.50
2019-02-18T07:39:05.337Z,0.56
2019-02-18T07:41:37.634Z,0.69
2019-02-18T07:44:09.293Z,0.81
2019-02-18T07:46:44.937Z,0.90
2019-02-18T07:49:21.270Z,1.24
2019-02-18T07:51:53.249Z,1.64
2019-02-18T07:54:23.836Z,1.93
2019-02-18T07:56:53.404Z,2.22
2019-02-18T07:59:24.003Z,2.35
2019-02-18T08:01:55.468Z,2.48
2019-02-18T08:04:24.402Z,2.44
2019-02-18T08:06:55.307Z,2.50
2019-02-18T08:09:27.381Z,2.57
2019-02-18T08:11:55.909Z,2.55
2019-02-18T08:14:27.959Z,2.68
2019-02-18T08:16:56.681Z,2.75
2019-02-18T08:19:33.579Z,2.80
2019-02-18T08:22:03.513Z,2.86
2019-02-18T08:24:37.442Z,2.93
2019-02-18T08:27:09.919Z,3.05
2019-02-18T08:29:42.240Z,3.24
2019-02-18T08:32:14.535Z,3.45
2019-02-18T08:34:45.887Z,3.49
2019-02-18T08:37:17.885Z,3.57
2019-02-18T08:39:48.434Z,3.69
2019-02-18T08:42:18.817Z,3.78
2019-02-18T08:44:49.730Z,3.95
2019-02-18T08:47:20.446Z,4.15
2019-02-18T08:49:55.766Z,4.18
2019-02-18T08:52:30.847Z,4.31
2019-02-18T08:55:13.337Z,4.37
2019-02-18T08:57:48.186Z,4.47
2019-02-18T09:00:18.783Z,4.58
2019-02-18T09:02:52.959Z,4.71
2019-02-18T09:05:23.930Z,4.70
2019-02-18T09:07:52.898Z,4.74
2019-02-18T09:10:32.944Z,4.97
2019-02-18T09:12:54.568Z,5.02
2019-02-18T09:15:28.488Z,5.18
2019-02-18T09:18:03.179Z,5.34
2019-02-18T09:20:35.199Z,5.56
2019-02-18T09:23:21.169Z,5.58
2019-02-18T09:25:59.312Z,5.60
2019-02-18T09:28:37.774Z,5.72
2019-02-18T09:31:10.903Z,5.78
2019-02-18T09:33:41.585Z,5.88
2019-02-18T09:36:12.153Z,6.09
2019-02-18T09:38:47.307Z,6.31
2019-02-18T09:41:25.502Z,6.45
2019-02-18T09:43:57.446Z,6.47
2019-02-18T09:46:31.065Z,6.57
2019-02-18T09:48:58.849Z,6.72
2019-02-18T09:51:27.493Z,6.93
2019-02-18T09:54:00.079Z,7.04
2019-02-18T09:56:30.477Z,7.24
2019-02-18T09:58:59.800Z,7.24
2019-02-18T10:01:30.341Z,7.35
2019-02-18T10:04:03.960Z,7.46
2019-02-18T10:06:33.951Z,7.66
2019-02-18T10:09:04.673Z,8.03
2019-02-18T10:11:43.221Z,8.37
2019-02-18T10:14:13.917Z,8.37
2019-02-18T10:16:43.025Z,8.57
2019-02-18T10:19:14.510Z,8.71
2019-02-18T10:21:43.154Z,8.88
2019-02-18T10:24:13.384Z,9.03
2019-02-18T10:26:44.035Z,9.23
2019-02-18T10:29:12.943Z,9.35
2019-02-18T10:31:44.632Z,9.45
2019-02-18T10:34:14.081Z,9.61
2019-02-18T10:36:44.438Z,9.68
2019-02-18T10:39:18.999Z,9.75
2019-02-18T10:41:54.108Z,9.91
2019-02-18T10:44:28.531Z,9.94
2019-02-18T10:47:01.845Z,10.09
2019-02-18T10:49:30.899Z,10.21
2019-02-18T10:52:00.933Z,10.28
2019-02-18T10:54:33.060Z,10.34
2019-02-18T10:57:06.820Z,10.47
2019-02-18T10:59:42.231Z,10.51
2019-02-18T11:02:17.331Z,10.65
2019-02-18T11:04:47.964Z,10.68
2019-02-18T11:07:22.518Z,10.72
2019-02-18T11:09:51.508Z,10.80
2019-02-18T11:12:25.517Z,10.94
2019-02-18T11:14:58.742Z,11.03
2019-02-18T11:17:38.819Z,11.03
2019-02-18T11:20:08.938Z,11.08
2019-02-18T11:22:42.628Z,11.04
2019-02-18T11:25:10.863Z,11.07
2019-02-18T11:27:43.354Z,11.20
2019-02-18T11:30:13.498Z,11.23
2019-02-18T11:32:48.288Z,11.31
2019-02-18T11:35:21.103Z,11.36
2019-02-18T11:37:51.510Z,11.44
2019-02-18T11:40:23.467Z,11.60
2019-02-18T11:42:54.088Z,11.73
2019-02-18T11:45:26.066Z,11.79
2019-02-18T11:47:55.004Z,11.95
2019-02-18T11:50:28.326Z,12.12
2019-02-18T11:53:00.388Z,12.12
2019-02-18T11:55:31.107Z,12.09
2019-02-18T11:58:05.445Z,12.20
2019-02-18T12:00:39.281Z,12.25
2019-02-18T12:03:12.298Z,12.32
2019-02-18T12:05:48.573Z,12.41
2019-02-18T12:08:25.891Z,12.54
2019-02-18T12:11:02.912Z,12.60
2019-02-18T12:13:31.697Z,12.69
2019-02-18T12:16:02.148Z,12.75
2019-02-18T12:18:38.392Z,12.77
2019-02-18T12:21:07.704Z,12.86
2019-02-18T12:23:48.212Z,12.97
2019-02-18T12:26:24.093Z,13.14
2019-02-18T12:29:14.962Z,13.17
2019-02-18T12:31:46.131Z,13.24
2019-02-18T12:34:18.650Z,13.17
2019-02-18T12:36:48.250Z,13.21
2019-02-18T12:39:22.758Z,13.30
2019-02-18T12:41:56.969Z,13.39
2019-02-18T12:44:31.174Z,13.35
2019-02-18T12:47:01.775Z,13.45
2019-02-18T12:49:34.374Z,13.49
2019-02-18T12:52:05.157Z,13.57
2019-02-18T12:54:34.446Z,13.65
2019-02-18T12:57:04.822Z,13.74
2019-02-18T12:59:36.425Z,13.76
2019-02-18T13:02:13.136Z,13.87
2019-02-18T13:04:45.099Z,13.91
2019-02-18T13:07:16.059Z,13.93
2019-02-18T13:09:44.975Z,13.97
2019-02-18T13:12:15.789Z,14.01
2019-02-18T13:14:47.229Z,14.03
2019-02-18T13:17:19.187Z,14.00
2019-02-18T13:19:50.107Z,14.05
2019-02-18T13:22:22.250Z,14.19
2019-02-18T13:24:55.510Z,14.38
2019-02-18T13:27:29.935Z,14.42
2019-02-18T13:30:01.010Z,14.46
2019-02-18T13:32:32.682Z,14.55
2019-02-18T13:35:03.128Z,14.51
2019-02-18T13:37:33.370Z,14.52
2019-02-18T13:40:02.629Z,14.55
2019-02-18T13:42:35.919Z,14.54
2019-02-18T13:45:06.507Z,14.56
2019-02-18T13:47:36.084Z,14.61
2019-02-18T13:50:05.132Z,14.73
2019-02-18T13:52:37.213Z,14.71
2019-02-18T13:55:08.204Z,14.66
2019-02-18T13:57:40.748Z,14.63
2019-02-18T14:00:18.303Z,14.58
2019-02-18T14:02:47.898Z,14.62
2019-02-18T14:05:18.761Z,14.68
2019-02-18T14:07:50.987Z,14.57
2019-02-18T14:10:21.075Z,14.51
2019-02-18T14:12:51.900Z,14.59
2019-02-18T14:15:23.453Z,14.66
2019-02-18T14:17:51.997Z,14.64
2019-02-18T14:20:22.668Z,14.72
2019-02-18T14:22:51.559Z,14.68
2019-02-18T14:25:23.541Z,14.72
2019-02-18T14:27:55.455Z,14.64
2019-02-18T14:30:27.344Z,14.79
2019-02-18T14:32:59.429Z,14.87
2019-02-18T14:35:29.381Z,14.91
2019-02-18T14:37:58.130Z,14.99
2019-02-18T14:40:27.128Z,14.91
2019-02-18T14:42:56.482Z,14.85
2019-02-18T14:45:25.932Z,14.72
2019-02-18T14:47:54.823Z,14.64
2019-02-18T14:50:27.203Z,14.54
2019-02-18T14:52:57.380Z,14.46
2019-02-18T14:55:26.330Z,14.43
2019-02-18T14:57:54.868Z,14.29
2019-02-18T15:00:24.031Z,14.25
2019-02-18T15:02:56.017Z,14.32
2019-02-18T15:05:25.564Z,14.33
2019-02-18T15:07:56.208Z,14.19
2019-02-18T15:10:28.183Z,14.18
2019-02-18T15:12:57.469Z,14.16
2019-02-18T15:15:28.096Z,14.12
2019-02-18T15:17:56.987Z,14.09
2019-02-18T15:20:30.457Z,14.01
2019-02-18T15:23:01.091Z,13.90
2019-02-18T15:25:29.875Z,13.98
2019-02-18T15:27:59.104Z,13.97
2019-02-18T15:30:28.014Z,13.86
2019-02-18T15:33:07.549Z,13.88
2019-02-18T15:35:39.307Z,13.82
2019-02-18T15:38:09.920Z,13.69
2019-02-18T15:40:39.946Z,13.73
2019-02-18T15:43:10.074Z,13.60
2019-02-18T15:45:40.324Z,13.69
2019-02-18T15:48:10.738Z,13.55
2019-02-18T15:50:40.330Z,13.55
2019-02-18T15:53:12.077Z,13.48
2019-02-18T15:55:42.235Z,13.40
2019-02-18T15:58:12.669Z,13.31
2019-02-18T16:00:45.047Z,13.16
2019-02-18T16:03:17.174Z,12.94
2019-02-18T16:05:47.620Z,12.76
2019-02-18T16:08:17.765Z,12.59
2019-02-18T16:10:53.715Z,12.57
2019-02-18T16:13:27.587Z,12.43
2019-02-18T16:15:58.155Z,12.32
2019-02-18T16:18:28.646Z,12.27
2019-02-18T16:21:03.680Z,12.34
2019-02-18T16:23:35.064Z,12.27
2019-02-18T16:26:13.349Z,12.06
2019-02-18T16:28:44.317Z,11.83
2019-02-18T16:31:20.413Z,11.68
2019-02-18T16:33:52.414Z,11.50
2019-02-18T16:36:25.228Z,11.18
2019-02-18T16:38:55.311Z,10.85
2019-02-18T16:41:27.583Z,10.46
2019-02-18T16:43:56.144Z,10.12
2019-02-18T16:46:31.204Z,9.80
2019-02-18T16:49:00.727Z,9.55
2019-02-18T16:51:40.233Z,9.50
2019-02-18T16:54:09.140Z,9.31
2019-02-18T16:56:40.153Z,9.07
2019-02-18T16:59:12.431Z,8.88
2019-02-18T17:01:41.357Z,8.93
2019-02-18T17:04:10.552Z,8.82
2019-02-18T17:06:39.493Z,8.77
2019-02-18T17:09:16.435Z,9.04
2019-02-18T17:11:47.965Z,8.62
2019-02-18T17:14:22.380Z,8.35
2019-02-18T17:16:51.998Z,8.07
2019-02-18T17:19:21.482Z,8.17
2019-02-18T17:21:53.467Z,7.97
2019-02-18T17:24:22.313Z,7.77
2019-02-18T17:26:53.979Z,7.71
2019-02-18T17:29:26.187Z,7.71
2019-02-18T17:31:55.423Z,7.55
2019-02-18T17:34:27.780Z,7.38
2019-02-18T17:37:04.966Z,7.30
2019-02-18T17:39:37.748Z,7.17
2019-02-18T17:42:10.675Z,7.03
2019-02-18T17:44:44.329Z,7.01
2019-02-18T17:47:16.396Z,6.99
2019-02-18T17:49:52.851Z,6.82
2019-02-18T17:52:22.305Z,6.78
2019-02-18T17:54:57.516Z,6.78
2019-02-18T17:57:32.360Z,6.63
2019-02-18T18:00:03.679Z,6.55
2019-02-18T18:02:38.534Z,6.60
2019-02-18T18:05:11.459Z,6.52
2019-02-18T18:07:43.891Z,6.55
2019-02-18T18:10:15.930Z,6.38
2019-02-18T18:12:53.522Z,6.50
2019-02-18T18:15:23.950Z,6.50
2019-02-18T18:17:56.366Z,6.78
2019-02-18T18:20:27.234Z,7.18
2019-02-18T18:23:04.508Z,7.52
2019-02-18T18:25:37.711Z,8.65
2019-02-18T18:28:14.094Z,8.65
2019-02-18T18:30:43.325Z,8.89
2019-02-18T18:33:18.846Z,9.16
2019-02-18T18:35:48.172Z,9.08
2019-02-18T18:38:18.518Z,9.15
2019-02-18T18:40:49.313Z,9.08
2019-02-18T18:43:19.468Z,8.91
2019-02-18T18:45:50.267Z,8.96
2019-02-18T18:48:23.375Z,9.03
2019-02-18T18:50:55.848Z,9.00
2019-02-18T18:53:27.705Z,9.05
2019-02-18T18:55:58.268Z,9.03
2019-02-18T18:58:29.361Z,9.56
2019-02-18T19:01:03.671Z,9.52
2019-02-18T19:03:36.090Z,9.56
2019-02-18T19:06:08.607Z,9.54
2019-02-18T19:08:38.446Z,9.68
2019-02-18T19:11:13.701Z,9.65
2019-02-18T19:13:45.851Z,9.64
2019-02-18T19:16:14.843Z,9.62
2019-02-18T19:18:51.521Z,9.69
2019-02-18T19:21:22.909Z,9.80
2019-02-18T19:23:56.691Z,9.80
2019-02-18T19:26:31.973Z,9.56
2019-02-18T19:29:03.195Z,9.69
2019-02-18T19:31:33.445Z,9.61
2019-02-18T19:34:04.280Z,9.50
2019-02-18T19:36:35.447Z,9.49
2019-02-18T19:39:11.370Z,9.21
2019-02-18T19:41:42.876Z,9.21
2019-02-18T19:44:15.072Z,9.41
2019-02-18T19:46:44.135Z,9.40
2019-02-18T19:49:16.784Z,9.19
2019-02-18T19:51:52.165Z,9.03
2019-02-18T19:54:21.271Z,8.81
2019-02-18T19:56:52.147Z,8.86
2019-02-18T19:59:23.204Z,8.60
2019-02-18T20:01:55.020Z,8.96
2019-02-18T20:04:25.253Z,8.90
2019-02-18T20:06:55.909Z,8.84
2019-02-18T20:09:27.672Z,8.67
2019-02-18T20:11:56.250Z,8.64
2019-02-18T20:14:46.560Z,8.58
2019-02-18T20:17:23.016Z,8.55
2019-02-18T20:20:16.418Z,8.39
2019-02-18T20:22:50.285Z,8.19
2019-02-18T20:25:22.356Z,8.41
2019-02-18T20:27:53.057Z,8.49
2019-02-18T20:30:26.651Z,8.50
2019-02-18T20:33:05.094Z,8.82
2019-02-18T20:35:39.280Z,8.82
2019-02-18T20:38:17.717Z,8.81
2019-02-18T20:40:57.371Z,8.92
2019-02-18T20:43:29.846Z,8.92
2019-02-18T20:46:02.847Z,8.87
2019-02-18T20:48:39.237Z,8.66
2019-02-18T20:51:11.860Z,8.52
2019-02-18T20:53:42.499Z,8.56
2019-02-18T20:56:16.149Z,8.48
2019-02-18T20:58:48.801Z,8.44
2019-02-18T21:01:21.039Z,8.49
2019-02-18T21:03:50.558Z,8.44
2019-02-18T21:06:22.903Z,8.32
2019-02-18T21:08:55.643Z,8.16
2019-02-18T21:11:27.667Z,8.16
2019-02-18T21:14:06.287Z,8.19
2019-02-18T21:16:42.358Z,8.19
2019-02-18T21:19:13.130Z,8.23
2019-02-18T21:21:43.760Z,8.18
2019-02-18T21:24:15.129Z,8.16
2019-02-18T21:26:47.330Z,8.15
2019-02-18T21:29:17.741Z,7.99
2019-02-18T21:31:47.766Z,7.94
2019-02-18T21:34:19.909Z,7.96
2019-02-18T21:36:54.526Z,7.96
2019-02-18T21:39:27.042Z,7.95
2019-02-18T21:42:00.974Z,7.93
2019-02-18T21:44:40.473Z,8.01
2019-02-18T21:47:12.402Z,8.02
2019-02-18T21:49:42.973Z,8.05
2019-02-18T21:52:20.172Z,7.93
2019-02-18T21:54:55.124Z,7.92
2019-02-18T21:57:30.916Z,7.94
2019-02-18T22:00:05.500Z,8.06
2019-02-18T22:02:37.901Z,8.14
2019-02-18T22:05:10.328Z,8.11
2019-02-18T22:07:50.608Z,8.11
2019-02-18T22:10:23.081Z,8.23
2019-02-18T22:12:57.981Z,8.20
2019-02-18T22:15:31.263Z,8.19
2019-02-18T22:18:04.865Z,7.97
2019-02-18T22:20:44.569Z,7.81
2019-02-18T22:23:25.299Z,7.78
2019-02-18T22:25:54.386Z,7.53
2019-02-18T22:28:23.977Z,7.31
2019-02-18T22:31:05.228Z,6.91
2019-02-18T22:33:36.671Z,6.58
2019-02-18T22:36:08.720Z,6.23
2019-02-18T22:38:44.079Z,5.91
2019-02-18T22:41:17.176Z,5.59
2019-02-18T22:43:49.216Z,5.28
2019-02-18T22:46:18.837Z,5.10
2019-02-18T22:48:51.451Z,5.07
2019-02-18T22:51:25.440Z,4.97
2019-02-18T22:53:54.539Z,4.92
2019-02-18T22:56:26.877Z,4.86
2019-02-18T22:58:58.500Z,4.74
2019-02-18T23:01:31.200Z,4.84
2019-02-18T23:04:06.451Z,4.75
2019-02-18T23:06:47.139Z,4.49
2019-02-18T23:09:20.124Z,4.37
2019-02-18T23:11:55.671Z,4.33
2019-02-18T23:14:24.602Z,4.22
2019-02-18T23:17:04.005Z,4.23
2019-02-18T23:19:36.861Z,4.22
2019-02-18T23:22:08.101Z,4.21
2019-02-18T23:24:42.544Z,4.14
2019-02-18T23:27:16.025Z,4.16
2019-02-18T23:29:48.633Z,4.08
2019-02-18T23:32:18.844Z,3.98
2019-02-18T23:34:52.425Z,4.06
2019-02-18T23:37:23.320Z,3.98
2019-02-18T23:39:53.476Z,3.93
2019-02-18T23:42:31.605Z,3.81
2019-02-18T23:45:05.218Z,3.67
2019-02-18T23:47:38.282Z,3.58
2019-02-18T23:50:12.202Z,3.52
2019-02-18T23:52:44.215Z,3.50
2019-02-18T23:55:13.194Z,3.51
2019-02-18T23:57:46.708Z,3.46
